createdAt,value
2019-03-10T00:09:49.649Z,76.71
2019-03-10T00:19:49.606Z,77.79
2019-03-10T00:29:49.660Z,78.95
2019-03-10T00:39:49.654Z,78.93
2019-03-10T00:49:49.686Z,79.16
2019-03-10T00:59:49.643Z,80.83
2019-03-10T01:09:49.620Z,80.33
2019-03-10T01:19:50.543Z,80.09
2019-03-10T01:29:49.849Z,80.22
2019-03-10T01:39:49.687Z,79.63
2019-03-10T01:49:49.896Z,79.03
2019-03-10T01:59:49.677Z,78.40
2019-03-10T02:09:49.629Z,80.87
2019-03-10T02:19:50.459Z,82.06
2019-03-10T02:29:49.636Z,81.91
2019-03-10T02:39:49.608Z,82.22
2019-03-10T02:49:49.654Z,84.42
2019-03-10T02:59:49.764Z,86.89
2019-03-10T03:09:49.603Z,87.91
2019-03-10T03:19:49.685Z,87.70
2019-03-10T03:29:49.650Z,90.30
2019-03-10T03:39:49.637Z,91.78
2019-03-10T03:49:49.710Z,91.79
2019-03-10T03:59:49.561Z,94.01
2019-03-10T04:09:49.616Z,93.83
2019-03-10T04:19:49.638Z,93.79
2019-03-10T04:29:49.569Z,94.29
2019-03-10T04:39:49.586Z,94.35
2019-03-10T04:49:49.670Z,94.87
2019-03-10T04:59:53.818Z,95.79
2019-03-10T05:09:49.542Z,96.87
2019-03-10T05:19:49.980Z,96.78
2019-03-10T05:29:49.606Z,97.62
2019-03-10T05:39:49.612Z,98.22
2019-03-10T05:49:49.595Z,98.75
2019-03-10T05:59:49.597Z,99.03
2019-03-10T06:09:49.610Z,99.65
2019-03-10T06:19:49.598Z,100.00
2019-03-10T06:29:49.626Z,100.00
2019-03-10T06:39:49.553Z,100.00
2019-03-10T06:49:51.659Z,100.00
2019-03-10T06:59:50.147Z,99.08
2019-03-10T07:09:49.566Z,99.04
2019-03-10T07:19:49.509Z,99.58
2019-03-10T07:29:49.608Z,98.58
2019-03-10T07:39:49.489Z,94.65
2019-03-10T07:49:49.570Z,91.75
2019-03-10T07:59:49.523Z,90.51
2019-03-10T08:09:49.567Z,90.02
2019-03-10T08:19:49.533Z,85.97
2019-03-10T08:29:49.765Z,82.73
2019-03-10T08:39:49.631Z,84.52
2019-03-10T08:49:49.768Z,87.00
2019-03-10T08:59:49.594Z,91.78
2019-03-10T09:09:49.611Z,92.40
2019-03-10T09:19:49.629Z,96.62
2019-03-10T09:29:49.553Z,91.25
2019-03-10T09:39:49.594Z,83.05
2019-03-10T09:49:49.553Z,79.49
2019-03-10T09:59:49.539Z,83.98
2019-03-10T10:09:49.577Z,91.17
2019-03-10T10:19:49.537Z,93.59
2019-03-10T10:29:49.590Z,84.44
2019-03-10T10:39:49.801Z,80.83
2019-03-10T10:49:49.575Z,77.01
2019-03-10T10:59:49.534Z,75.46
2019-03-10T11:09:49.508Z,75.15
2019-03-10T11:19:49.592Z,69.72
2019-03-10T11:29:49.588Z,69.23
2019-03-10T11:39:49.663Z,68.49
2019-03-10T11:49:49.563Z,69.56
2019-03-10T11:59:49.583Z,70.51
2019-03-10T12:09:49.493Z,72.90
2019-03-10T12:19:49.548Z,74.55
2019-03-10T12:29:50.148Z,71.70
2019-03-10T12:39:49.519Z,71.16
2019-03-10T12:49:49.566Z,68.44
2019-03-10T12:59:49.637Z,67.53
2019-03-10T13:09:49.494Z,66.75
2019-03-10T13:19:49.534Z,66.12
2019-03-10T13:29:49.909Z,55.49
2019-03-10T13:39:49.547Z,54.00
2019-03-10T13:49:49.552Z,52.76
2019-03-10T13:59:49.555Z,54.15
2019-03-10T14:09:49.473Z,57.59
2019-03-10T14:19:49.531Z,54.38
2019-03-10T14:29:49.553Z,54.19
2019-03-10T14:39:49.457Z,56.05
2019-03-10T14:49:49.496Z,55.49
2019-03-10T14:59:49.503Z,56.13
2019-03-10T15:09:49.574Z,56.26
2019-03-10T15:19:49.451Z,60.44
2019-03-10T15:29:49.515Z,67.40
2019-03-10T15:39:49.712Z,79.33
2019-03-10T15:49:49.599Z,89.70
2019-03-10T15:59:49.527Z,93.59
2019-03-10T16:09:49.601Z,92.82
2019-03-10T16:19:49.472Z,93.31
2019-03-10T16:29:49.552Z,93.29
2019-03-10T16:39:49.489Z,91.06
2019-03-10T16:49:50.143Z,89.96
2019-03-10T16:59:49.463Z,89.90
2019-03-10T17:09:49.457Z,88.76
2019-03-10T17:19:49.545Z,88.18
2019-03-10T17:29:49.613Z,86.63
2019-03-10T17:39:49.496Z,86.02
2019-03-10T17:49:49.445Z,83.98
2019-03-10T17:59:49.465Z,76.79
2019-03-10T18:09:49.468Z,73.25
2019-03-10T18:19:50.665Z,75.35
2019-03-10T18:29:49.460Z,78.96
2019-03-10T18:39:49.522Z,80.77
2019-03-10T18:49:49.390Z,81.10
2019-03-10T18:59:49.473Z,81.71
2019-03-10T19:09:49.429Z,80.13
2019-03-10T19:19:49.542Z,78.67
2019-03-10T19:29:49.430Z,77.62
2019-03-10T19:39:49.560Z,84.58
2019-03-10T19:49:49.934Z,90.40
2019-03-10T19:59:49.466Z,89.21
2019-03-10T20:09:49.439Z,86.04
2019-03-10T20:19:49.503Z,83.62
2019-03-10T20:29:49.489Z,82.55
2019-03-10T20:39:49.422Z,80.81
2019-03-10T20:49:49.399Z,78.57
2019-03-10T20:59:59.989Z,78.87
2019-03-10T21:09:49.461Z,77.87
2019-03-10T21:19:51.099Z,80.04
2019-03-10T21:29:49.488Z,79.16
2019-03-10T21:39:49.508Z,76.45
2019-03-10T21:49:49.436Z,74.08
2019-03-10T21:59:49.487Z,72.70
2019-03-10T22:09:49.411Z,71.62
2019-03-10T22:19:49.440Z,71.51
2019-03-10T22:29:49.413Z,71.01
2019-03-10T22:39:49.283Z,70.99
2019-03-10T22:49:49.517Z,71.17
2019-03-10T22:59:49.334Z,70.18
2019-03-10T23:09:49.339Z,70.52
2019-03-10T23:19:49.422Z,70.96
2019-03-10T23:29:49.463Z,71.42
2019-03-10T23:39:49.371Z,73.16
2019-03-10T23:49:49.381Z,75.07
2019-03-10T23:59:49.363Z,84.03
